sensor_id;sensor_type;location;lat;lon;timestamp;temperature;humidity
2062;DHT22;11070;51.336;12.340;2023-12-14T00:01:51;8.00;99.90
2062;DHT22;11070;51.336;12.340;2023-12-14T00:04:20;8.00;99.90
2062;DHT22;11070;51.336;12.340;2023-12-14T00:06:45;8.10;99.90
2062;DHT22;11070;51.336;12.340;2023-12-14T00:09:11;8.00;99.90
2062;DHT22;11070;51.336;12.340;2023-12-14T00:11:40;8.00;99.90
2062;DHT22;11070;51.336;12.340;2023-12-14T00:14:06;8.00;99.90
2062;DHT22;11070;51.336;12.340;2023-12-14T00:16:32;7.90;99.90
2062;DHT22;11070;51.336;12.340;2023-12-14T00:18:57;7.80;99.90
2062;DHT22;11070;51.336;12.340;2023-12-14T00:21:23;7.60;99.90
2062;DHT22;11070;51.336;12.340;2023-12-14T00:23:48;7.40;99.90
2062;DHT22;11070;51.336;12.340;2023-12-14T00:26:14;7.40;99.90
2062;DHT22;11070;51.336;12.340;2023-12-14T00:28:40;7.30;99.90
2062;DHT22;11070;51.336;12.340;2023-12-14T00:31:06;7.20;99.90
2062;DHT22;11070;51.336;12.340;2023-12-14T00:33:31;7.10;99.90
2062;DHT22;11070;51.336;12.340;2023-12-14T00:35:57;7.10;99.90
2062;DHT22;11070;51.336;12.340;2023-12-14T00:38:23;7.10;99.90
2062;DHT22;11070;51.336;12.340;2023-12-14T00:40:49;7.10;99.90
2062;DHT22;11070;51.336;12.340;2023-12-14T00:43:14;7.10;99.90
2062;DHT22;11070;51.336;12.340;2023-12-14T00:45:40;7.10;99.90
2062;DHT22;11070;51.336;12.340;2023-12-14T00:48:07;7.10;99.90
2062;DHT22;11070;51.336;12.340;2023-12-14T00:50:32;7.00;99.90
2062;DHT22;11070;51.336;12.340;2023-12-14T00:52:58;7.10;99.90
2062;DHT22;11070;51.336;12.340;2023-12-14T00:55:24;7.00;99.90
2062;DHT22;11070;51.336;12.340;2023-12-14T00:57:49;6.90;99.90
2062;DHT22;11070;51.336;12.340;2023-12-14T01:00:15;6.90;99.90
2062;DHT22;11070;51.336;12.340;2023-12-14T01:02:41;6.90;99.90
2062;DHT22;11070;51.336;12.340;2023-12-14T01:05:07;6.90;99.90
2062;DHT22;11070;51.336;12.340;2023-12-14T01:07:33;6.90;99.90
2062;DHT22;11070;51.336;12.340;2023-12-14T01:09:58;6.80;99.90
2062;DHT22;11070;51.336;12.340;2023-12-14T01:12:24;6.80;99.90
2062;DHT22;11070;51.336;12.340;2023-12-14T01:14:50;6.70;99.90
2062;DHT22;11070;51.336;12.340;2023-12-14T01:17:16;6.80;99.90
2062;DHT22;11070;51.336;12.340;2023-12-14T01:19:41;6.80;99.90
2062;DHT22;11070;51.336;12.340;2023-12-14T01:22:07;6.80;99.90
2062;DHT22;11070;51.336;12.340;2023-12-14T01:24:33;6.80;99.90
2062;DHT22;11070;51.336;12.340;2023-12-14T01:27:02;6.80;99.90
2062;DHT22;11070;51.336;12.340;2023-12-14T01:29:30;6.80;99.90
2062;DHT22;11070;51.336;12.340;2023-12-14T01:31:55;6.70;99.90
2062;DHT22;11070;51.336;12.340;2023-12-14T01:34:21;6.60;99.90
2062;DHT22;11070;51.336;12.340;2023-12-14T01:36:47;6.70;99.90
2062;DHT22;11070;51.336;12.340;2023-12-14T01:39:12;6.70;99.90
2062;DHT22;11070;51.336;12.340;2023-12-14T01:41:41;6.70;99.90
2062;DHT22;11070;51.336;12.340;2023-12-14T01:44:07;6.80;99.90
2062;DHT22;11070;51.336;12.340;2023-12-14T01:46:32;6.80;99.90
2062;DHT22;11070;51.336;12.340;2023-12-14T01:48:58;6.80;99.90
2062;DHT22;11070;51.336;12.340;2023-12-14T01:51:27;6.80;99.90
2062;DHT22;11070;51.336;12.340;2023-12-14T01:53:52;6.80;99.90
2062;DHT22;11070;51.336;12.340;2023-12-14T01:56:18;6.80;99.90
2062;DHT22;11070;51.336;12.340;2023-12-14T01:58:47;6.80;99.90
2062;DHT22;11070;51.336;12.340;2023-12-14T02:01:58;6.80;99.90
2062;DHT22;11070;51.336;12.340;2023-12-14T02:04:16;6.80;99.90
2062;DHT22;11070;51.336;12.340;2023-12-14T02:06:42;6.80;99.90
2062;DHT22;11070;51.336;12.340;2023-12-14T02:09:09;6.70;99.90
2062;DHT22;11070;51.336;12.340;2023-12-14T02:11:35;6.70;99.90
2062;DHT22;11070;51.336;12.340;2023-12-14T02:14:05;6.80;99.90
2062;DHT22;11070;51.336;12.340;2023-12-14T02:16:31;6.80;99.90
2062;DHT22;11070;51.336;12.340;2023-12-14T02:18:57;6.80;99.90
2062;DHT22;11070;51.336;12.340;2023-12-14T02:21:23;6.80;99.90
2062;DHT22;11070;51.336;12.340;2023-12-14T02:23:51;6.90;99.90
2062;DHT22;11070;51.336;12.340;2023-12-14T02:26:17;6.90;99.90
2062;DHT22;11070;51.336;12.340;2023-12-14T02:28:45;6.90;99.90
2062;DHT22;11070;51.336;12.340;2023-12-14T02:31:11;6.90;99.90
2062;DHT22;11070;51.336;12.340;2023-12-14T02:33:36;6.90;99.90
2062;DHT22;11070;51.336;12.340;2023-12-14T02:36:02;7.00;99.90
2062;DHT22;11070;51.336;12.340;2023-12-14T02:38:29;7.00;99.90
2062;DHT22;11070;51.336;12.340;2023-12-14T02:40:55;7.00;99.90
2062;DHT22;11070;51.336;12.340;2023-12-14T02:43:20;6.90;99.90
2062;DHT22;11070;51.336;12.340;2023-12-14T02:45:46;6.90;99.90
2062;DHT22;11070;51.336;12.340;2023-12-14T02:48:12;6.80;99.90
2062;DHT22;11070;51.336;12.340;2023-12-14T02:50:37;6.80;99.90
2062;DHT22;11070;51.336;12.340;2023-12-14T02:53:03;6.80;99.90
2062;DHT22;11070;51.336;12.340;2023-12-14T02:55:29;6.80;99.90
2062;DHT22;11070;51.336;12.340;2023-12-14T02:57:55;6.80;99.90
2062;DHT22;11070;51.336;12.340;2023-12-14T03:00:20;6.80;99.90
2062;DHT22;11070;51.336;12.340;2023-12-14T03:02:46;6.80;99.90
2062;DHT22;11070;51.336;12.340;2023-12-14T03:05:12;6.70;99.90
2062;DHT22;11070;51.336;12.340;2023-12-14T03:07:37;6.60;99.90
2062;DHT22;11070;51.336;12.340;2023-12-14T03:10:03;6.70;99.90
2062;DHT22;11070;51.336;12.340;2023-12-14T03:12:29;6.70;99.90
2062;DHT22;11070;51.336;12.340;2023-12-14T03:14:55;6.60;99.90
2062;DHT22;11070;51.336;12.340;2023-12-14T03:17:21;6.60;99.90
2062;DHT22;11070;51.336;12.340;2023-12-14T03:19:46;6.50;99.90
2062;DHT22;11070;51.336;12.340;2023-12-14T03:22:12;6.40;99.90
2062;DHT22;11070;51.336;12.340;2023-12-14T03:24:38;6.40;99.90
2062;DHT22;11070;51.336;12.340;2023-12-14T03:27:04;6.30;99.90
2062;DHT22;11070;51.336;12.340;2023-12-14T03:29:30;6.30;99.90
2062;DHT22;11070;51.336;12.340;2023-12-14T03:31:57;6.20;99.90
2062;DHT22;11070;51.336;12.340;2023-12-14T03:34:23;6.20;99.90
2062;DHT22;11070;51.336;12.340;2023-12-14T03:36:50;6.20;99.90
2062;DHT22;11070;51.336;12.340;2023-12-14T03:39:15;6.20;99.90
2062;DHT22;11070;51.336;12.340;2023-12-14T03:41:44;6.20;99.90
2062;DHT22;11070;51.336;12.340;2023-12-14T03:44:10;6.10;99.90
2062;DHT22;11070;51.336;12.340;2023-12-14T03:46:37;6.10;99.90
2062;DHT22;11070;51.336;12.340;2023-12-14T03:49:03;6.10;99.90
2062;DHT22;11070;51.336;12.340;2023-12-14T03:51:29;6.10;99.90
2062;DHT22;11070;51.336;12.340;2023-12-14T03:53:55;6.10;99.90
2062;DHT22;11070;51.336;12.340;2023-12-14T03:56:21;6.20;99.90
2062;DHT22;11070;51.336;12.340;2023-12-14T03:58:46;6.20;99.90
2062;DHT22;11070;51.336;12.340;2023-12-14T04:01:17;6.20;99.90
2062;DHT22;11070;51.336;12.340;2023-12-14T04:03:43;6.20;99.90
2062;DHT22;11070;51.336;12.340;2023-12-14T04:06:09;6.30;99.90
2062;DHT22;11070;51.336;12.340;2023-12-14T04:08:34;6.30;99.90
2062;DHT22;11070;51.336;12.340;2023-12-14T04:11:00;6.30;99.90
2062;DHT22;11070;51.336;12.340;2023-12-14T04:13:26;6.30;99.90
2062;DHT22;11070;51.336;12.340;2023-12-14T04:15:52;6.20;99.90
2062;DHT22;11070;51.336;12.340;2023-12-14T04:18:18;6.20;99.90
2062;DHT22;11070;51.336;12.340;2023-12-14T04:20:44;6.20;99.90
2062;DHT22;11070;51.336;12.340;2023-12-14T04:23:09;6.20;99.90
2062;DHT22;11070;51.336;12.340;2023-12-14T04:25:35;6.20;99.90
2062;DHT22;11070;51.336;12.340;2023-12-14T04:28:01;6.10;99.90
2062;DHT22;11070;51.336;12.340;2023-12-14T04:30:26;6.20;99.90
2062;DHT22;11070;51.336;12.340;2023-12-14T04:32:52;6.20;99.90
2062;DHT22;11070;51.336;12.340;2023-12-14T04:35:18;6.20;99.90
2062;DHT22;11070;51.336;12.340;2023-12-14T04:37:44;6.20;99.90
2062;DHT22;11070;51.336;12.340;2023-12-14T04:40:10;6.20;99.90
2062;DHT22;11070;51.336;12.340;2023-12-14T04:42:36;6.10;99.90
2062;DHT22;11070;51.336;12.340;2023-12-14T04:45:02;6.10;99.90
2062;DHT22;11070;51.336;12.340;2023-12-14T04:47:27;6.10;99.90
2062;DHT22;11070;51.336;12.340;2023-12-14T04:49:54;6.00;99.90
2062;DHT22;11070;51.336;12.340;2023-12-14T04:52:19;6.10;99.90
2062;DHT22;11070;51.336;12.340;2023-12-14T04:54:45;6.10;99.90
2062;DHT22;11070;51.336;12.340;2023-12-14T04:57:11;6.00;99.90
2062;DHT22;11070;51.336;12.340;2023-12-14T04:59:36;5.90;99.90
2062;DHT22;11070;51.336;12.340;2023-12-14T05:02:02;5.90;99.90
2062;DHT22;11070;51.336;12.340;2023-12-14T05:04:27;5.90;99.90
2062;DHT22;11070;51.336;12.340;2023-12-14T05:06:53;5.90;99.90
2062;DHT22;11070;51.336;12.340;2023-12-14T05:09:19;5.90;99.90
2062;DHT22;11070;51.336;12.340;2023-12-14T05:11:45;5.90;99.90
2062;DHT22;11070;51.336;12.340;2023-12-14T05:14:10;5.80;99.90
2062;DHT22;11070;51.336;12.340;2023-12-14T05:16:36;5.80;99.90
2062;DHT22;11070;51.336;12.340;2023-12-14T05:19:02;5.80;99.90
2062;DHT22;11070;51.336;12.340;2023-12-14T05:21:27;5.70;99.90
2062;DHT22;11070;51.336;12.340;2023-12-14T05:23:53;5.60;99.90
2062;DHT22;11070;51.336;12.340;2023-12-14T05:26:19;5.60;99.90
2062;DHT22;11070;51.336;12.340;2023-12-14T05:28:45;5.60;99.90
2062;DHT22;11070;51.336;12.340;2023-12-14T05:31:10;5.60;99.90
2062;DHT22;11070;51.336;12.340;2023-12-14T05:33:37;5.50;99.90
2062;DHT22;11070;51.336;12.340;2023-12-14T05:36:03;5.50;99.90
2062;DHT22;11070;51.336;12.340;2023-12-14T05:38:31;5.40;99.90
2062;DHT22;11070;51.336;12.340;2023-12-14T05:40:57;5.40;99.90
2062;DHT22;11070;51.336;12.340;2023-12-14T05:43:22;5.40;99.90
2062;DHT22;11070;51.336;12.340;2023-12-14T05:45:48;5.50;99.90
2062;DHT22;11070;51.336;12.340;2023-12-14T05:48:13;5.50;99.90
2062;DHT22;11070;51.336;12.340;2023-12-14T05:50:42;5.50;99.90
2062;DHT22;11070;51.336;12.340;2023-12-14T05:53:08;5.40;99.90
2062;DHT22;11070;51.336;12.340;2023-12-14T05:55:34;5.40;99.90
2062;DHT22;11070;51.336;12.340;2023-12-14T05:58:00;5.40;99.90
2062;DHT22;11070;51.336;12.340;2023-12-14T06:00:26;5.40;99.90
2062;DHT22;11070;51.336;12.340;2023-12-14T06:02:51;5.40;99.90
2062;DHT22;11070;51.336;12.340;2023-12-14T06:05:17;5.40;99.90
2062;DHT22;11070;51.336;12.340;2023-12-14T06:07:43;5.40;99.90
2062;DHT22;11070;51.336;12.340;2023-12-14T06:10:10;5.40;99.90
2062;DHT22;11070;51.336;12.340;2023-12-14T06:12:35;5.40;99.90
2062;DHT22;11070;51.336;12.340;2023-12-14T06:15:01;5.40;99.90
2062;DHT22;11070;51.336;12.340;2023-12-14T06:17:27;5.40;99.90
2062;DHT22;11070;51.336;12.340;2023-12-14T06:19:53;5.30;99.90
2062;DHT22;11070;51.336;12.340;2023-12-14T06:22:18;5.30;99.90
2062;DHT22;11070;51.336;12.340;2023-12-14T06:24:44;5.20;99.90
2062;DHT22;11070;51.336;12.340;2023-12-14T06:27:11;5.20;99.90
2062;DHT22;11070;51.336;12.340;2023-12-14T06:29:36;5.20;99.90
2062;DHT22;11070;51.336;12.340;2023-12-14T06:32:02;5.30;99.90
2062;DHT22;11070;51.336;12.340;2023-12-14T06:34:28;5.30;99.90
2062;DHT22;11070;51.336;12.340;2023-12-14T06:36:53;5.20;99.90
2062;DHT22;11070;51.336;12.340;2023-12-14T06:39:19;5.30;99.90
2062;DHT22;11070;51.336;12.340;2023-12-14T06:41:45;5.30;99.90
2062;DHT22;11070;51.336;12.340;2023-12-14T06:44:11;5.30;99.90
2062;DHT22;11070;51.336;12.340;2023-12-14T06:46:36;5.30;99.90
2062;DHT22;11070;51.336;12.340;2023-12-14T06:49:02;5.30;99.90
2062;DHT22;11070;51.336;12.340;2023-12-14T06:51:28;5.30;99.90
2062;DHT22;11070;51.336;12.340;2023-12-14T06:53:53;5.20;99.90
2062;DHT22;11070;51.336;12.340;2023-12-14T06:56:19;5.20;99.90
2062;DHT22;11070;51.336;12.340;2023-12-14T06:58:45;5.20;99.90
2062;DHT22;11070;51.336;12.340;2023-12-14T07:01:17;5.20;99.90
2062;DHT22;11070;51.336;12.340;2023-12-14T07:03:45;5.20;99.90
2062;DHT22;11070;51.336;12.340;2023-12-14T07:06:12;5.30;99.90
2062;DHT22;11070;51.336;12.340;2023-12-14T07:08:39;5.30;99.90
2062;DHT22;11070;51.336;12.340;2023-12-14T07:11:06;5.20;99.90
2062;DHT22;11070;51.336;12.340;2023-12-14T07:13:32;5.10;99.90
2062;DHT22;11070;51.336;12.340;2023-12-14T07:15:58;5.10;99.90
2062;DHT22;11070;51.336;12.340;2023-12-14T07:18:24;5.10;99.90
2062;DHT22;11070;51.336;12.340;2023-12-14T07:20:50;5.10;99.90
2062;DHT22;11070;51.336;12.340;2023-12-14T07:23:15;5.10;99.90
2062;DHT22;11070;51.336;12.340;2023-12-14T07:25:41;5.10;99.90
2062;DHT22;11070;51.336;12.340;2023-12-14T07:28:07;5.10;99.90
2062;DHT22;11070;51.336;12.340;2023-12-14T07:30:32;5.10;99.90
2062;DHT22;11070;51.336;12.340;2023-12-14T07:32:58;5.10;99.90
2062;DHT22;11070;51.336;12.340;2023-12-14T07:35:23;5.10;99.90
2062;DHT22;11070;51.336;12.340;2023-12-14T07:37:49;5.10;99.90
2062;DHT22;11070;51.336;12.340;2023-12-14T07:40:15;5.00;99.90
2062;DHT22;11070;51.336;12.340;2023-12-14T07:42:40;5.00;99.90
2062;DHT22;11070;51.336;12.340;2023-12-14T07:45:07;5.00;99.90
2062;DHT22;11070;51.336;12.340;2023-12-14T07:47:34;5.00;99.90
2062;DHT22;11070;51.336;12.340;2023-12-14T07:50:00;4.90;99.90
2062;DHT22;11070;51.336;12.340;2023-12-14T07:52:26;4.90;99.90
2062;DHT22;11070;51.336;12.340;2023-12-14T07:54:52;4.90;99.90
2062;DHT22;11070;51.336;12.340;2023-12-14T07:57:18;4.90;99.90
2062;DHT22;11070;51.336;12.340;2023-12-14T07:59:43;4.90;99.90
2062;DHT22;11070;51.336;12.340;2023-12-14T08:02:09;4.90;99.90
2062;DHT22;11070;51.336;12.340;2023-12-14T08:07:01;4.70;99.90
2062;DHT22;11070;51.336;12.340;2023-12-14T08:09:27;4.70;99.90
2062;DHT22;11070;51.336;12.340;2023-12-14T08:11:52;4.70;99.90
2062;DHT22;11070;51.336;12.340;2023-12-14T08:14:18;4.70;99.90
2062;DHT22;11070;51.336;12.340;2023-12-14T08:16:44;4.90;99.90
2062;DHT22;11070;51.336;12.340;2023-12-14T08:19:09;4.90;99.90
2062;DHT22;11070;51.336;12.340;2023-12-14T08:21:35;4.90;99.90
2062;DHT22;11070;51.336;12.340;2023-12-14T08:24:00;4.80;99.90
2062;DHT22;11070;51.336;12.340;2023-12-14T08:26:26;4.80;99.90
2062;DHT22;11070;51.336;12.340;2023-12-14T08:28:52;4.80;99.90
2062;DHT22;11070;51.336;12.340;2023-12-14T08:31:17;4.80;99.90
2062;DHT22;11070;51.336;12.340;2023-12-14T08:33:43;4.80;99.90
2062;DHT22;11070;51.336;12.340;2023-12-14T08:36:09;4.80;99.90
2062;DHT22;11070;51.336;12.340;2023-12-14T08:38:34;4.90;99.90
2062;DHT22;11070;51.336;12.340;2023-12-14T08:41:00;4.90;99.90
2062;DHT22;11070;51.336;12.340;2023-12-14T08:43:26;4.90;99.90
2062;DHT22;11070;51.336;12.340;2023-12-14T08:45:52;4.90;99.90
2062;DHT22;11070;51.336;12.340;2023-12-14T08:48:18;4.90;99.90
2062;DHT22;11070;51.336;12.340;2023-12-14T08:50:44;4.90;99.90
2062;DHT22;11070;51.336;12.340;2023-12-14T08:53:10;4.90;99.90
2062;DHT22;11070;51.336;12.340;2023-12-14T08:55:36;5.00;99.90
2062;DHT22;11070;51.336;12.340;2023-12-14T08:58:02;5.00;99.90
2062;DHT22;11070;51.336;12.340;2023-12-14T09:00:27;5.00;99.90
2062;DHT22;11070;51.336;12.340;2023-12-14T09:02:53;5.00;99.90
2062;DHT22;11070;51.336;12.340;2023-12-14T09:05:19;4.90;99.90
2062;DHT22;11070;51.336;12.340;2023-12-14T09:07:46;4.90;99.90
2062;DHT22;11070;51.336;12.340;2023-12-14T09:10:12;4.90;99.90
2062;DHT22;11070;51.336;12.340;2023-12-14T09:12:38;4.90;99.90
2062;DHT22;11070;51.336;12.340;2023-12-14T09:15:04;4.90;99.90
2062;DHT22;11070;51.336;12.340;2023-12-14T09:17:30;4.90;99.90
2062;DHT22;11070;51.336;12.340;2023-12-14T09:20:01;4.80;99.90
2062;DHT22;11070;51.336;12.340;2023-12-14T09:22:30;4.80;99.90
2062;DHT22;11070;51.336;12.340;2023-12-14T09:24:56;4.90;99.90
2062;DHT22;11070;51.336;12.340;2023-12-14T09:27:22;4.90;99.90
2062;DHT22;11070;51.336;12.340;2023-12-14T09:29:47;4.90;99.90
2062;DHT22;11070;51.336;12.340;2023-12-14T09:32:13;5.00;99.90
2062;DHT22;11070;51.336;12.340;2023-12-14T09:34:39;5.00;99.90
2062;DHT22;11070;51.336;12.340;2023-12-14T09:37:04;5.00;99.90
2062;DHT22;11070;51.336;12.340;2023-12-14T09:39:33;5.00;99.90
2062;DHT22;11070;51.336;12.340;2023-12-14T09:42:03;5.00;99.90
2062;DHT22;11070;51.336;12.340;2023-12-14T09:44:33;5.00;99.90
2062;DHT22;11070;51.336;12.340;2023-12-14T09:47:01;5.00;99.90
2062;DHT22;11070;51.336;12.340;2023-12-14T09:49:29;5.10;99.90
2062;DHT22;11070;51.336;12.340;2023-12-14T09:51:59;5.00;99.90
2062;DHT22;11070;51.336;12.340;2023-12-14T09:54:26;5.00;99.90
2062;DHT22;11070;51.336;12.340;2023-12-14T09:56:52;4.90;99.90
2062;DHT22;11070;51.336;12.340;2023-12-14T09:59:19;5.00;99.90
2062;DHT22;11070;51.336;12.340;2023-12-14T10:01:45;5.00;99.90
2062;DHT22;11070;51.336;12.340;2023-12-14T10:04:19;4.90;99.90
2062;DHT22;11070;51.336;12.340;2023-12-14T10:06:47;5.00;99.90
2062;DHT22;11070;51.336;12.340;2023-12-14T10:09:13;5.00;99.90
2062;DHT22;11070;51.336;12.340;2023-12-14T10:11:41;5.00;99.90
2062;DHT22;11070;51.336;12.340;2023-12-14T10:14:24;5.00;99.90
2062;DHT22;11070;51.336;12.340;2023-12-14T10:16:51;5.00;99.90
2062;DHT22;11070;51.336;12.340;2023-12-14T10:19:18;5.00;99.90
2062;DHT22;11070;51.336;12.340;2023-12-14T10:21:44;4.90;99.90
2062;DHT22;11070;51.336;12.340;2023-12-14T10:24:12;4.90;99.90
2062;DHT22;11070;51.336;12.340;2023-12-14T10:26:38;4.80;99.90
2062;DHT22;11070;51.336;12.340;2023-12-14T10:29:03;4.80;99.90
2062;DHT22;11070;51.336;12.340;2023-12-14T10:31:32;4.80;99.90
2062;DHT22;11070;51.336;12.340;2023-12-14T10:34:06;4.80;99.90
2062;DHT22;11070;51.336;12.340;2023-12-14T10:36:32;4.80;99.90
2062;DHT22;11070;51.336;12.340;2023-12-14T10:39:00;4.80;99.90
2062;DHT22;11070;51.336;12.340;2023-12-14T10:41:26;4.70;99.90
2062;DHT22;11070;51.336;12.340;2023-12-14T10:43:55;4.80;99.90
2062;DHT22;11070;51.336;12.340;2023-12-14T10:46:21;4.80;99.90
2062;DHT22;11070;51.336;12.340;2023-12-14T10:48:51;4.80;99.90
2062;DHT22;11070;51.336;12.340;2023-12-14T10:51:22;4.80;99.90
2062;DHT22;11070;51.336;12.340;2023-12-14T10:53:49;4.90;99.90
2062;DHT22;11070;51.336;12.340;2023-12-14T10:56:17;5.00;99.90
2062;DHT22;11070;51.336;12.340;2023-12-14T10:58:55;5.00;99.90
2062;DHT22;11070;51.336;12.340;2023-12-14T11:01:22;4.80;99.90
2062;DHT22;11070;51.336;12.340;2023-12-14T11:03:55;4.80;99.90
2062;DHT22;11070;51.336;12.340;2023-12-14T11:08:58;4.80;99.90
2062;DHT22;11070;51.336;12.340;2023-12-14T11:11:28;4.80;99.90
2062;DHT22;11070;51.336;12.340;2023-12-14T11:13:54;4.90;99.90
2062;DHT22;11070;51.336;12.340;2023-12-14T11:16:24;4.90;99.90
2062;DHT22;11070;51.336;12.340;2023-12-14T11:24:22;5.00;99.90
2062;DHT22;11070;51.336;12.340;2023-12-14T11:26:51;5.00;99.90
2062;DHT22;11070;51.336;12.340;2023-12-14T11:29:18;5.00;99.90
2062;DHT22;11070;51.336;12.340;2023-12-14T11:31:45;5.00;99.90
2062;DHT22;11070;51.336;12.340;2023-12-14T11:34:13;5.00;99.90
2062;DHT22;11070;51.336;12.340;2023-12-14T11:36:40;5.00;99.90
2062;DHT22;11070;51.336;12.340;2023-12-14T11:39:10;5.10;99.90
2062;DHT22;11070;51.336;12.340;2023-12-14T11:41:36;5.10;99.90
2062;DHT22;11070;51.336;12.340;2023-12-14T11:44:04;5.20;99.90
2062;DHT22;11070;51.336;12.340;2023-12-14T11:46:30;5.20;99.90
2062;DHT22;11070;51.336;12.340;2023-12-14T11:48:59;5.10;99.90
2062;DHT22;11070;51.336;12.340;2023-12-14T11:51:28;5.20;99.90
2062;DHT22;11070;51.336;12.340;2023-12-14T11:53:57;5.10;99.90
2062;DHT22;11070;51.336;12.340;2023-12-14T11:56:25;5.10;99.90
2062;DHT22;11070;51.336;12.340;2023-12-14T11:58:51;5.10;99.90
2062;DHT22;11070;51.336;12.340;2023-12-14T12:01:19;5.10;99.90
2062;DHT22;11070;51.336;12.340;2023-12-14T12:03:47;5.10;99.90
2062;DHT22;11070;51.336;12.340;2023-12-14T12:06:26;5.00;99.90
2062;DHT22;11070;51.336;12.340;2023-12-14T12:08:56;4.90;99.90
2062;DHT22;11070;51.336;12.340;2023-12-14T12:11:24;5.00;99.90
2062;DHT22;11070;51.336;12.340;2023-12-14T12:13:56;5.00;99.90
2062;DHT22;11070;51.336;12.340;2023-12-14T12:16:22;4.90;99.90
2062;DHT22;11070;51.336;12.340;2023-12-14T12:18:49;4.90;99.90
2062;DHT22;11070;51.336;12.340;2023-12-14T12:21:16;5.00;99.90
2062;DHT22;11070;51.336;12.340;2023-12-14T12:23:41;4.90;99.90
2062;DHT22;11070;51.336;12.340;2023-12-14T12:26:08;5.00;99.90
2062;DHT22;11070;51.336;12.340;2023-12-14T12:28:33;5.00;99.90
2062;DHT22;11070;51.336;12.340;2023-12-14T12:30:59;4.90;99.90
2062;DHT22;11070;51.336;12.340;2023-12-14T12:33:25;4.90;99.90
2062;DHT22;11070;51.336;12.340;2023-12-14T12:35:52;4.90;99.90
2062;DHT22;11070;51.336;12.340;2023-12-14T12:38:17;4.90;99.90
2062;DHT22;11070;51.336;12.340;2023-12-14T12:40:44;5.00;99.90
2062;DHT22;11070;51.336;12.340;2023-12-14T12:43:10;5.00;99.90
2062;DHT22;11070;51.336;12.340;2023-12-14T12:45:36;5.00;99.90
2062;DHT22;11070;51.336;12.340;2023-12-14T12:48:03;4.90;99.90
2062;DHT22;11070;51.336;12.340;2023-12-14T12:50:29;4.90;99.90
2062;DHT22;11070;51.336;12.340;2023-12-14T12:52:55;4.90;99.90
2062;DHT22;11070;51.336;12.340;2023-12-14T12:55:21;5.00;99.90
2062;DHT22;11070;51.336;12.340;2023-12-14T12:57:48;5.00;99.90
2062;DHT22;11070;51.336;12.340;2023-12-14T13:00:14;5.00;99.90
2062;DHT22;11070;51.336;12.340;2023-12-14T13:02:41;5.10;99.90
2062;DHT22;11070;51.336;12.340;2023-12-14T13:05:08;5.00;99.90
2062;DHT22;11070;51.336;12.340;2023-12-14T13:07:34;5.00;99.90
2062;DHT22;11070;51.336;12.340;2023-12-14T13:10:01;5.00;99.90
2062;DHT22;11070;51.336;12.340;2023-12-14T13:12:29;4.90;99.90
2062;DHT22;11070;51.336;12.340;2023-12-14T13:14:54;4.90;99.90
2062;DHT22;11070;51.336;12.340;2023-12-14T13:17:20;4.90;99.90
2062;DHT22;11070;51.336;12.340;2023-12-14T13:19:46;4.90;99.90
2062;DHT22;11070;51.336;12.340;2023-12-14T13:22:11;4.90;99.90
2062;DHT22;11070;51.336;12.340;2023-12-14T13:24:38;4.80;99.90
2062;DHT22;11070;51.336;12.340;2023-12-14T13:27:04;4.80;99.90
2062;DHT22;11070;51.336;12.340;2023-12-14T13:29:31;4.80;99.90
2062;DHT22;11070;51.336;12.340;2023-12-14T13:31:58;4.70;99.90
2062;DHT22;11070;51.336;12.340;2023-12-14T13:34:25;4.80;99.90
2062;DHT22;11070;51.336;12.340;2023-12-14T13:36:50;4.80;99.90
2062;DHT22;11070;51.336;12.340;2023-12-14T13:39:16;4.80;99.90
2062;DHT22;11070;51.336;12.340;2023-12-14T13:41:41;4.80;99.90
2062;DHT22;11070;51.336;12.340;2023-12-14T13:44:07;4.80;99.90
2062;DHT22;11070;51.336;12.340;2023-12-14T13:46:33;4.90;99.90
2062;DHT22;11070;51.336;12.340;2023-12-14T13:48:58;4.80;99.90
2062;DHT22;11070;51.336;12.340;2023-12-14T13:51:25;4.80;99.90
2062;DHT22;11070;51.336;12.340;2023-12-14T13:53:50;4.80;99.90
2062;DHT22;11070;51.336;12.340;2023-12-14T13:56:16;4.80;99.90
2062;DHT22;11070;51.336;12.340;2023-12-14T13:58:42;4.80;99.90
2062;DHT22;11070;51.336;12.340;2023-12-14T14:01:07;4.80;99.90
2062;DHT22;11070;51.336;12.340;2023-12-14T14:03:34;4.80;99.90
2062;DHT22;11070;51.336;12.340;2023-12-14T14:06:01;4.80;99.90
2062;DHT22;11070;51.336;12.340;2023-12-14T14:08:27;4.80;99.90
2062;DHT22;11070;51.336;12.340;2023-12-14T14:10:53;4.80;99.90
2062;DHT22;11070;51.336;12.340;2023-12-14T14:13:19;4.90;99.90
2062;DHT22;11070;51.336;12.340;2023-12-14T14:15:47;4.80;99.90
2062;DHT22;11070;51.336;12.340;2023-12-14T14:18:13;4.80;99.90
2062;DHT22;11070;51.336;12.340;2023-12-14T14:20:39;4.80;99.90
2062;DHT22;11070;51.336;12.340;2023-12-14T14:23:04;4.80;99.90
2062;DHT22;11070;51.336;12.340;2023-12-14T14:25:30;4.80;99.90
2062;DHT22;11070;51.336;12.340;2023-12-14T14:27:56;4.80;99.90
2062;DHT22;11070;51.336;12.340;2023-12-14T14:30:22;4.80;99.90
2062;DHT22;11070;51.336;12.340;2023-12-14T14:32:47;4.70;99.90
2062;DHT22;11070;51.336;12.340;2023-12-14T14:35:13;4.60;99.90
2062;DHT22;11070;51.336;12.340;2023-12-14T14:37:39;4.70;99.90
2062;DHT22;11070;51.336;12.340;2023-12-14T14:40:08;4.60;99.90
2062;DHT22;11070;51.336;12.340;2023-12-14T14:42:33;4.60;99.90
2062;DHT22;11070;51.336;12.340;2023-12-14T14:44:59;4.60;99.90
2062;DHT22;11070;51.336;12.340;2023-12-14T14:47:25;4.60;99.90
2062;DHT22;11070;51.336;12.340;2023-12-14T14:49:51;4.60;99.90
2062;DHT22;11070;51.336;12.340;2023-12-14T14:52:17;4.50;99.90
2062;DHT22;11070;51.336;12.340;2023-12-14T14:54:43;4.40;99.90
2062;DHT22;11070;51.336;12.340;2023-12-14T14:57:08;4.40;99.90
2062;DHT22;11070;51.336;12.340;2023-12-14T14:59:34;4.40;99.90
2062;DHT22;11070;51.336;12.340;2023-12-14T15:02:00;4.40;99.90
2062;DHT22;11070;51.336;12.340;2023-12-14T15:04:27;4.50;99.90
2062;DHT22;11070;51.336;12.340;2023-12-14T15:06:52;4.50;99.90
2062;DHT22;11070;51.336;12.340;2023-12-14T15:09:18;4.50;99.90
2062;DHT22;11070;51.336;12.340;2023-12-14T15:11:45;4.40;99.90
2062;DHT22;11070;51.336;12.340;2023-12-14T15:14:10;4.40;99.90
2062;DHT22;11070;51.336;12.340;2023-12-14T15:16:36;4.40;99.90
2062;DHT22;11070;51.336;12.340;2023-12-14T15:19:02;4.40;99.90
2062;DHT22;11070;51.336;12.340;2023-12-14T15:21:28;4.40;99.90
2062;DHT22;11070;51.336;12.340;2023-12-14T15:23:53;4.40;99.90
2062;DHT22;11070;51.336;12.340;2023-12-14T15:26:19;4.30;99.90
2062;DHT22;11070;51.336;12.340;2023-12-14T15:28:45;4.30;99.90
2062;DHT22;11070;51.336;12.340;2023-12-14T15:31:11;4.30;99.90
2062;DHT22;11070;51.336;12.340;2023-12-14T15:33:37;4.30;99.90
2062;DHT22;11070;51.336;12.340;2023-12-14T15:36:03;4.30;99.90
2062;DHT22;11070;51.336;12.340;2023-12-14T15:38:28;4.30;99.90
2062;DHT22;11070;51.336;12.340;2023-12-14T15:40:54;4.30;99.90
2062;DHT22;11070;51.336;12.340;2023-12-14T15:43:20;4.40;99.90
2062;DHT22;11070;51.336;12.340;2023-12-14T15:45:47;4.40;99.90
2062;DHT22;11070;51.336;12.340;2023-12-14T15:48:13;4.50;99.90
2062;DHT22;11070;51.336;12.340;2023-12-14T15:50:39;4.40;99.90